Terminal Aerodrome Forecast
Issued by NWS

Home | Current Version | Previous Version | Text Only | Print | Product List | Glossary On
Versions: 1 2 3 4 5 6 7 8 9 10 11 12 13 14 15 16 17 18 19 20
000
FTUS44 KLUB 230100 AAB
TAFCDS
TAF AMD
KCDS 230123Z 2301/2324 15007KT 5SM BR OVC060
      TEMPO 2301/2305 BKN006
     FM230500 15005KT 5SM BR SCT030 SCT060
     FM231500 19008KT P6SM FEW020=

USA.gov is the U.S. government's official web portal to all federal, state and local government web resources and services.